Data for 09/22/2014

Time Sea-Level Adjusted Pressure Absolute Pressure Temperature Relative Humidity Dew Point   
(mb) (inHg) (mb) (inHg) (C) (F) (%) (C) (F)
00:05 1020 30.12 849 25.07 16 60.8 49 5.4 41.7
00:10 1020 30.12 849 25.07 15.8 60.4 50 5.5 41.9
00:15 1020 30.12 849 25.07 15.6 60 51 5.5 41.9
00:20 1020 30.12 849 25.07 15.6 60 51 5.6 42
00:25 1020 30.12 849 25.07 15.5 59.9 52 5.7 42.2
00:30 1020 30.12 849 25.07 15.5 59.8 52 5.7 42.3
00:35 1020 30.12 849 25.07 15.3 59.6 53 5.9 42.6
00:40 1020 30.12 849 25.07 15.1 59.3 55 6.2 43.2
00:45 1020 30.12 849 25.07 15.2 59.4 57 6.8 44.3
00:50 1020 30.12 849 25.07 15.1 59.2 57 6.8 44.3
00:55 1020 30.12 849 25.07 14.7 58.5 59 6.8 44.2
01:00 1020 30.12 849 25.07 14.6 58.3 59 6.8 44.2
01:05 1020 30.12 849 25.07 14.7 58.5 58 6.6 43.8
01:10 1020 30.12 849 25.07 14.9 58.9 57 6.6 43.9
01:15 1020 30.12 849 25.07 15.1 59.2 57 6.7 44.1
01:20 1020 30.12 849 25.07 15 59.1 57 6.7 44.1
01:25 1020 30.12 849 25.07 15 59 57 6.6 43.8
01:30 1020 30.12 849 25.07 15.1 59.1 57 6.8 44.3
01:35 1020 30.12 849 25.07 14.8 58.7 58 6.7 44.1
01:40 1020 30.12 849 25.07 14.6 58.2 59 6.8 44.2
01:45 1020 30.12 849 25.07 14.3 57.7 60 6.6 43.9
01:50 1020 30.12 849 25.07 14.4 57.9 60 6.7 44
01:55 1020 30.12 849 25.07 14.7 58.4 60 7.2 44.9
02:00 1020 30.12 849 25.07 14.7 58.5 60 7.1 44.7
02:05 1020 30.12 849 25.07 14.4 57.9 61 7.1 44.7
02:10 1020 30.12 849 25.07 14.3 57.7 62 7.2 44.9
02:15 1020 30.12 849 25.07 14.4 57.8 61 6.9 44.5
02:20 1020 30.12 849 25.07 14.5 58.1 60 6.9 44.4
02:25 1020 30.12 849 25.07 14.7 58.4 60 7 44.5
02:30 1020 30.12 849 25.07 14.7 58.4 64 7.9 46.3
02:35 1020 30.12 849 25.07 14.7 58.4 63 7.8 46
02:40 1020 30.12 849 25.07 14.5 58.2 60 6.9 44.4
02:45 1020 30.12 849 25.07 14.6 58.2 59 6.7 44
02:50 1020 30.12 849 25.07 14.8 58.6 58 6.6 44
02:55 1020 30.12 849 25.07 14.6 58.4 59 6.9 44.4
03:00 1020 30.12 849 25.07 14.5 58.1 60 7 44.6
03:05 1020 30.12 849 25.07 14.5 58 60 6.8 44.3
03:10 1020 30.12 849 25.07 14.5 58 61 7 44.6
03:15 1020 30.12 849 25.07 14.5 58.1 62 7.4 45.4
03:20 1020 30.12 849 25.07 14.5 58 61 7.2 45
03:25 1020 30.12 849 25.07 14.5 58 64 7.9 46.2
03:30 1020 30.12 849 25.07 14.5 58.1 61 7.1 44.7
03:35 1020 30.12 849 25.07 14.6 58.3 64 7.9 46.2
03:40 1020 30.12 849 25.07 14.1 57.3 69 8.4 47.2
03:45 1020 30.12 849 25.07 13.5 56.4 72 8.6 47.5
03:50 1020 30.12 849 25.07 13.5 56.2 70 8.1 46.7
03:55 1020 30.12 849 25.07 13.7 56.6 69 8.1 46.6
04:00 1020 30.12 849 25.07 13.9 56.9 72 8.9 48
04:05 1020 30.12 849 25.07 13.8 56.9 73 9 48.2
04:10 1020 30.12 849 25.07 13.8 56.8 76 9.7 49.4
04:15 1020 30.12 849 25.07 13.3 56 76 9.2 48.6
04:20 1020 30.12 849 25.07 13.2 55.7 79 9.7 49.5
04:25 1020 30.12 850 25.1 12.7 54.9 80 9.3 48.7
04:30 1020 30.12 850 25.1 12.7 54.8 78 8.9 48
04:35 1020 30.12 849 25.07 12.7 54.9 76 8.7 47.7
04:40 1020 30.12 849 25.07 12.7 54.8 76 8.6 47.6
04:45 1020 30.12 849 25.07 12.8 55.1 75 8.5 47.3
04:50 1020 30.12 849 25.07 12.9 55.2 75 8.7 47.7
04:55 1020 30.12 849 25.07 12.9 55.2 77 9 48.3
05:00 1020 30.12 849 25.07 12.7 54.8 79 9.2 48.6
05:05 1020 30.12 849 25.07 12.5 54.6 79 9.1 48.3
05:10 1020 30.12 849 25.07 12.7 54.8 76 8.6 47.4
05:15 1020 30.12 849 25.07 13 55.4 74 8.5 47.3
05:20 1020 30.12 849 25.07 13.2 55.8 74 8.6 47.5
05:25 1020 30.12 849 25.07 13.3 55.9 73 8.6 47.4
05:30 1020 30.12 849 25.07 13.4 56.2 74 8.9 48
05:35 1020 30.12 849 25.07 13.5 56.3 73 8.8 47.8
05:40 1020 30.12 849 25.07 13.5 56.3 75 9.1 48.4
05:45 1020 30.12 849 25.07 13.5 56.3 73 8.8 47.9
05:50 1020 30.12 849 25.07 13.6 56.5 74 9.1 48.3
05:55 1020 30.12 849 25.07 13.5 56.2 76 9.3 48.7
06:00 1020 30.12 849 25.07 13.2 55.8 77 9.2 48.6
06:05 1020 30.12 849 25.07 13.2 55.8 77 9.3 48.7
06:10 1020 30.12 849 25.07 13.1 55.5 76 9 48.2
06:15 1020 30.12 849 25.07 13.3 55.9 76 9.2 48.5
06:20 1020 30.12 849 25.07 13.5 56.2 74 8.9 48
06:25 1020 30.12 849 25.07 13.5 56.3 75 9.2 48.5
06:30 1020 30.12 849 25.07 13.6 56.4 71 8.4 47.1
06:35 1020 30.12 849 25.07 14 57.2 74 9.5 49
06:40 1020 30.12 849 25.07 13.6 56.6 74 9.1 48.3
06:45 1020 30.12 849 25.07 14 57.2 73 9.2 48.6
06:50 1020 30.12 849 25.07 13.8 56.8 72 8.8 47.8
06:55 1020 30.12 849 25.07 13.9 57 72 8.9 48
07:00 1020 30.12 849 25.07 13.9 57 71 8.9 48
07:05 1020 30.12 849 25.07 13.7 56.7 73 9 48.2
07:10 1020 30.12 849 25.07 13.6 56.4 74 9 48.2
07:15 1020 30.12 849 25.07 13.6 56.5 73 8.9 48
07:20 1020 30.12 849 25.07 13.7 56.6 74 9.2 48.5
07:25 1020 30.12 849 25.07 13.8 56.8 72 9 48.1
07:30 1020 30.12 849 25.07 14 57.1 73 9.2 48.6
07:35 1020 30.12 849 25.07 14 57.3 73 9.3 48.8
07:40 1020 30.12 849 25.07 14.2 57.6 72 9.2 48.6
07:45 1020 30.12 849 25.07 14.3 57.8 72 9.4 48.8
07:50 1020 30.12 849 25.07 14.5 58 72 9.5 49
07:55 1020 30.12 849 25.07 14.6 58.4 71 9.4 48.9
08:00 1020 30.12 849 25.07 14.8 58.6 68 8.9 48.1
08:05 1020 30.12 849 25.07 14.9 58.9 66 8.7 47.6
08:10 1020 30.12 849 25.07 15.2 59.4 67 9.2 48.5
08:15 1020 30.12 849 25.07 15.4 59.7 67 9.3 48.7
08:20 1020 30.12 849 25.07 15.6 60.1 66 9.4 49
08:25 1020 30.12 849 25.07 15.6 60.2 68 9.7 49.5
08:30 1020 30.12 849 25.07 16 60.7 65 9.5 49.1
08:35 1020 30.12 849 25.07 16.2 61.2 66 9.9 49.8
08:40 1020 30.12 849 25.07 16.4 61.5 63 9.4 48.9
08:45 1020 30.12 849 25.07 16.4 61.5 64 9.6 49.2
08:50 1020 30.12 849 25.07 16.6 61.9 64 9.8 49.6
08:55 1020 30.12 849 25.07 16.6 61.9 63 9.6 49.3
09:00 1020 30.12 849 25.07 16.7 62 61 9.2 48.5
09:05 1020 30.12 849 25.07 16.9 62.3 61 9.5 49
09:10 1020 30.12 849 25.07 17.1 62.8 61 9.5 49.1
09:15 1020 30.12 849 25.07 17.2 63 60 9.5 49.1
09:20 1020 30.12 849 25.07 17.4 63.4 59 9.5 49
09:25 1020 30.12 849 25.07 17.4 63.2 60 9.6 49.2
09:30 1020 30.12 849 25.07 17.3 63.2 58 9.1 48.4
09:35 1020 30.12 849 25.07 17.1 62.8 60 9.3 48.7
09:40 1020 30.12 849 25.07 17.2 62.9 58 8.9 48
09:45 1020 30.12 849 25.07 17.4 63.3 58 9.1 48.4
09:50 1020 30.12 849 25.07 17.4 63.2 59 9.3 48.7
09:55 1020 30.12 849 25.07 17.5 63.5 59 9.4 49
10:00 1020 30.12 849 25.07 17.7 63.9 58 9.4 48.9
10:05 1020 30.12 849 25.07 17.9 64.2 58 9.5 49
10:10 1020 30.12 849 25.07 17.6 63.7 58 9.4 48.9
10:15 1020 30.12 849 25.07 17.7 63.8 58 9.3 48.8
10:20 1020 30.12 849 25.07 18 64.4 57 9.5 49
10:25 1020 30.12 849 25.07 17.8 64 60 10 49.9
10:30 1020 30.12 849 25.07 17.4 63.4 59 9.3 48.8
10:35 1020 30.12 849 25.07 17.4 63.3 60 9.6 49.2
10:40 1020 30.12 849 25.07 17.9 64.2 58 9.6 49.3
10:45 1020 30.12 849 25.07 18.3 65 55 9.3 48.8
10:50 1020 30.12 849 25.07 18.1 64.6 58 9.9 49.8
10:55 1020 30.12 849 25.07 18.3 64.9 56 9.5 49.1
11:00 1020 30.12 849 25.07 18.1 64.5 56 9.2 48.6
11:05 1020 30.12 849 25.07 18.1 64.5 56 9.3 48.7
11:10 1020 30.12 849 25.07 18.3 64.9 55 9.1 48.4
11:15 1020 30.12 849 25.07 18.2 64.8 54 9 48.2
11:20 1020 30.12 849 25.07 18.7 65.7 54 9.4 48.9
11:25 1020 30.12 849 25.07 19.1 66.3 53 9.4 48.8
11:30 1020 30.12 849 25.07 19.2 66.6 54 9.7 49.5
11:35 1020 30.12 849 25.07 19.3 66.8 53 9.7 49.4
11:40 1020 30.12 849 25.07 19.2 66.6 53 9.5 49.1
11:45 1020 30.12 849 25.07 19.3 66.7 52 9.4 49
11:50 1020 30.12 849 25.07 19.1 66.4 54 9.6 49.2
11:55 1020 30.12 849 25.07 18.9 65.9 54 9.4 48.9
12:00 1020 30.12 849 25.07 19.1 66.3 53 9.3 48.8
12:05 1020 30.12 849 25.07 19.2 66.5 53 9.4 48.9
12:10 1020 30.12 849 25.07 18.8 65.8 56 9.8 49.7
12:15 1020 30.12 849 25.07 18.7 65.6 54 9.4 48.9
12:20 1020 30.12 849 25.07 18.8 65.8 54 9.4 49
12:25 1020 30.12 849 25.07 18.9 66 54 9.5 49.1
12:30 1020 30.12 849 25.07 18.9 66.1 54 9.5 49
12:35 1020 30.12 849 25.07 18.9 66.1 53 9.4 48.9
12:40 1020 30.12 849 25.07 18.9 66.1 52 8.8 47.9
12:45 1020 30.12 849 25.07 18.7 65.6 54 9.3 48.8
12:50 1020 30.12 849 25.07 18.8 65.8 54 9.4 48.9
12:55 1020 30.12 849 25.07 18.8 65.8 53 9.2 48.5
13:00 1020 30.12 849 25.07 18.7 65.7 54 9.3 48.8
13:05 1020 30.12 849 25.07 18.7 65.7 53 9.1 48.4
13:10 1020 30.12 849 25.07 18.8 65.8 53 9.1 48.4
13:15 1020 30.12 849 25.07 18.8 65.8 53 9.1 48.3
13:20 1020 30.12 849 25.07 18.7 65.7 53 9.1 48.3
13:25 1020 30.12 849 25.07 18.7 65.6 54 9.2 48.5
13:30 1020 30.12 849 25.07 18.7 65.6 55 9.5 49.1
13:35 1020 30.12 849 25.07 18.6 65.4 56 9.7 49.4
13:40 1020 30.12 849 25.07 18.6 65.5 56 9.9 49.7
13:45 1020 30.12 849 25.07 18.6 65.5 57 10 49.9
13:50 1020 30.12 849 25.07 18.6 65.6 56 9.9 49.9
13:55 1020 30.12 849 25.07 18.7 65.7 54 9.3 48.7
14:00 1020 30.12 849 25.07 18.9 66 53 9.2 48.6
14:05 1020 30.12 849 25.07 18.9 66.1 54 9.5 49.1
14:10 1020 30.12 849 25.07 19 66.1 54 9.7 49.4
14:15 1020 30.12 849 25.07 19.1 66.3 53 9.4 49
14:20 1020 30.12 849 25.07 19.1 66.3 53 9.3 48.7
14:25 1020 30.12 849 25.07 19.1 66.4 53 9.5 49.2
14:30 1020 30.12 849 25.07 19 66.2 54 9.6 49.2
14:35 1020 30.12 849 25.07 18.9 65.9 54 9.4 48.8
14:40 1020 30.12 849 25.07 18.8 65.8 54 9.5 49.1
14:45 1020 30.12 849 25.07 18.9 65.9 54 9.5 49.2
14:50 1020 30.12 849 25.07 18.9 66 53 9.3 48.8
14:55 1019 30.09 849 25.07 19.1 66.4 53 9.3 48.8
15:00 1019 30.09 849 25.07 19 66.2 53 9.5 49
15:05 1019 30.09 849 25.07 19 66.1 53 9.3 48.7
15:10 1019 30.09 849 25.07 19.1 66.3 52 9.2 48.6
15:15 1019 30.09 848 25.04 19 66.1 52 9 48.3
15:20 1019 30.09 848 25.04 18.6 65.5 53 8.8 47.9
15:25 1019 30.09 848 25.04 18.7 65.7 52 8.8 47.8
15:30 1019 30.09 848 25.04 19 66.1 51 8.7 47.7
15:35 1019 30.09 848 25.04 19 66.1 52 8.9 48
15:40 1019 30.09 848 25.04 18.9 65.9 53 9.2 48.6
15:45 1019 30.09 848 25.04 18.4 65.2 54 9 48.2
15:50 1019 30.09 848 25.04 18.3 64.9 54 9 48.2
15:55 1019 30.09 848 25.04 18.2 64.7 56 9.4 48.9
16:00 1019 30.09 848 25.04 18.3 64.9 54 8.9 48.1
16:05 1019 30.09 848 25.04 18.2 64.8 55 9.2 48.5
16:10 1019 30.09 848 25.04 18.4 65 54 9.1 48.4
16:15 1019 30.09 848 25.04 18.4 65.1 53 8.7 47.7
16:20 1019 30.09 848 25.04 18.4 65.2 52 8.5 47.3
16:25 1019 30.09 848 25.04 18.5 65.3 54 9 48.2
16:30 1019 30.09 848 25.04 18.7 65.6 51 8.6 47.4
16:35 1019 30.09 848 25.04 18.6 65.5 53 9 48.1
16:40 1019 30.09 848 25.04 18.7 65.7 54 9.4 48.9
16:45 1019 30.09 848 25.04 18.7 65.7 52 8.9 48
16:50 1019 30.09 848 25.04 18.6 65.5 53 8.9 48
16:55 1019 30.09 848 25.04 18.7 65.6 52 8.7 47.7
17:00 1019 30.09 848 25.04 18.7 65.7 52 8.8 47.9
17:05 1019 30.09 848 25.04 18.7 65.6 53 9 48.2
17:10 1019 30.09 848 25.04 18.8 65.8 51 8.6 47.5
17:15 1019 30.09 848 25.04 18.8 65.9 53 9.2 48.5
17:20 1019 30.09 848 25.04 18.7 65.7 54 9.4 48.9
17:25 1019 30.09 848 25.04 18.3 65 57 9.7 49.4
17:30 1019 30.09 848 25.04 18.2 64.7 55 9.2 48.6
17:35 1019 30.09 848 25.04 18.1 64.6 57 9.6 49.2
17:40 1019 30.09 848 25.04 18 64.4 58 9.7 49.4
17:45 1019 30.09 848 25.04 18 64.3 58 9.8 49.6
17:50 1019 30.09 848 25.04 18 64.4 60 10.1 50.3
17:55 1019 30.09 848 25.04 17.9 64.2 60 10.1 50.1
18:00 1019 30.09 848 25.04 17.9 64.1 60 10.1 50.1
18:05 1019 30.09 848 25.04 17.8 64.1 61 10.4 50.7
18:10 1019 30.09 848 25.04 17.7 63.9 63 10.7 51.2
18:15 1019 30.09 848 25.04 17.6 63.7 64 10.8 51.5
18:20 1019 30.09 848 25.04 17.4 63.3 66 11.1 52.1
18:25 1019 30.09 848 25.04 17.2 62.9 66 10.7 51.3
18:30 1019 30.09 848 25.04 17 62.7 67 10.9 51.6
18:35 1019 30.09 848 25.04 17 62.6 67 10.9 51.6
18:40 1019 30.09 848 25.04 16.9 62.4 69 11.3 52.4
18:45 1019 30.09 848 25.04 16.7 62.1 69 11 51.9
18:50 1019 30.09 848 25.04 16.6 61.8 70 11.1 51.9
18:55 1019 30.09 848 25.04 16.4 61.5 70 10.9 51.6
19:00 1019 30.09 848 25.04 16.4 61.4 70 10.9 51.6
19:05 1019 30.09 848 25.04 16.3 61.4 70 10.9 51.6
19:10 1019 30.09 848 25.04 16.1 61.1 72 11.2 52.1
19:15 1019 30.09 848 25.04 16 60.9 71 10.8 51.4
19:20 1019 30.09 849 25.07 16.1 61 72 11 51.8
19:25 1019 30.09 849 25.07 16 60.8 72 10.9 51.7
19:30 1019 30.09 849 25.07 15.9 60.6 69 10.3 50.6
19:35 1019 30.09 849 25.07 16 60.8 70 10.6 51.1
19:40 1019 30.09 849 25.07 16 60.8 72 11.1 51.9
19:45 1019 30.09 849 25.07 15.6 60.1 77 11.6 52.9
19:50 1019 30.09 849 25.07 15.1 59.1 76 10.9 51.6
19:55 1019 30.09 849 25.07 14.8 58.7 75 10.5 50.9
20:00 1019 30.09 849 25.07 14.8 58.7 75 10.4 50.8
20:05 1019 30.09 849 25.07 14.7 58.5 72 9.7 49.5
20:10 1020 30.12 849 25.07 15 59.1 70 9.7 49.4
20:15 1020 30.12 849 25.07 15.2 59.3 68 9.3 48.8
20:20 1020 30.12 849 25.07 15.3 59.6 68 9.4 48.9
20:25 1020 30.12 849 25.07 15.3 59.5 69 9.6 49.4
20:30 1020 30.12 849 25.07 15.1 59.3 68 9.4 48.9
20:35 1020 30.12 849 25.07 15.1 59.2 68 9.4 48.9
20:40 1020 30.12 849 25.07 15.1 59.2 69 9.5 49.1
20:45 1020 30.12 849 25.07 15 59 69 9.5 49
20:50 1020 30.12 849 25.07 14.9 58.8 70 9.6 49.2
20:55 1020 30.12 849 25.07 14.8 58.7 71 9.6 49.3
21:00 1020 30.12 849 25.07 15 59.1 70 9.6 49.4
21:05 1020 30.12 849 25.07 15 58.9 68 9.2 48.5
21:10 1020 30.12 849 25.07 14.7 58.4 69 9.1 48.4
21:15 1020 30.12 849 25.07 14.5 58.1 69 9 48.2
21:20 1020 30.12 849 25.07 14.3 57.8 69 8.7 47.7
21:25 1020 30.12 849 25.07 14.3 57.7 69 8.8 47.8
21:30 1020 30.12 849 25.07 14.1 57.4 71 9 48.2
21:35 1020 30.12 849 25.07 13.8 56.8 72 8.8 47.8
21:40 1020 30.12 849 25.07 13.6 56.5 72 8.7 47.7
21:45 1020 30.12 849 25.07 13.5 56.2 71 8.3 46.9
21:50 1020 30.12 849 25.07 13.5 56.4 70 8.3 46.9
21:55 1020 30.12 849 25.07 13.5 56.2 72 8.5 47.3
22:00 1020 30.12 849 25.07 13.3 55.9 70 8 46.3
22:05 1020 30.12 849 25.07 13.5 56.2 70 8.1 46.6
22:10 1020 30.12 849 25.07 13.6 56.4 67 7.7 45.8
22:15 1020 30.12 849 25.07 13.7 56.7 67 7.7 45.8
22:20 1020 30.12 849 25.07 13.8 56.8 66 7.6 45.8
22:25 1020 30.12 849 25.07 13.7 56.7 68 8 46.4
22:30 1020 30.12 849 25.07 13.3 55.9 71 8.2 46.7
22:35 1020 30.12 849 25.07 13 55.3 72 8 46.5
22:40 1020 30.12 849 25.07 13 55.3 69 7.5 45.5
22:45 1019 30.09 849 25.07 13.1 55.7 69 7.6 45.7
22:50 1019 30.09 849 25.07 13.3 56 66 7.2 44.9
22:55 1019 30.09 849 25.07 13.5 56.3 65 7.2 45
23:00 1019 30.09 849 25.07 13.3 55.9 67 7.4 45.2
23:05 1019 30.09 849 25.07 13.1 55.6 65 6.8 44.3
23:10 1019 30.09 849 25.07 13.5 56.2 66 7.3 45.1
23:15 1019 30.09 849 25.07 13.2 55.8 66 7.1 44.8
23:20 1019 30.09 849 25.07 13.1 55.5 67 7.2 44.9
23:25 1020 30.12 849 25.07 12.9 55.2 68 7.3 45.1
23:30 1020 30.12 849 25.07 12.7 54.9 67 6.9 44.3
23:35 1020 30.12 849 25.07 13 55.4 66 6.8 44.3
23:40 1020 30.12 849 25.07 13.2 55.7 64 6.5 43.8
23:45 1020 30.12 849 25.07 13.5 56.3 62 6.5 43.7
23:50 1020 30.12 849 25.07 13.6 56.5 62 6.5 43.7
23:55 1020 30.12 849 25.07 13.6 56.5 64 6.9 44.4
24:00 1020 30.12 849 25.07 13.2 55.7 65 6.7 44.1